»·PEaware :: WAT540 KCMA-KSNA

WAT540 :: KCMA-KSNA

FLIGHT INFORMATION

Flight Status: Arrived
Operator:
Walker Air Transport
More flights by this operator :: More flights under this callsign
Pilot: Michael R. (33632)
Aircraft: GRUMMAN AERO AA5 CHEETAH TIGER
(AA5)
More flights by this aircraft type
Origin: KCMA Camarillo
United States
Destination: KSNA John Wayne-Orange Co
United States
More flights between these airports :: More routes between these airports
Route:
File this flight plan on PilotEdge
Remarks:
Altitude:
(Current/Filed)
5,500ft
Speed:
(Current/Filed)
130kts
Departed: 12-Feb-21 10:04 AM
Arrived: 12-Feb-21 10:46 AM
Distance/Time
Traveled:
69nm/0:42
Distance/Time
To Go:
Arrived

Flight Plot

Page will automatically refresh every two minutes.


Map Options




Map Legend


Flown Route
Filed Route
Departure Airport
Arrival Airport
Navaid (VOR, NDB)
Fix

Horizontal Profiles

Position Reports

Time Latitude Longitude Heading Altitude Ground
Speed
12-Feb-21 09:33 34.210770 -119.095415 359 62ft 0kts
12-Feb-21 09:34 34.210770 -119.095415 359 62ft 0kts
12-Feb-21 09:35 34.210770 -119.095415 359 62ft 0kts
12-Feb-21 09:36 34.210770 -119.095415 359 62ft 0kts
12-Feb-21 09:37 34.210770 -119.095415 359 62ft 0kts
12-Feb-21 09:38 34.210770 -119.095415 359 62ft 0kts
12-Feb-21 09:39 34.210770 -119.095415 359 62ft 0kts
12-Feb-21 09:40 34.210770 -119.095415 359 62ft 0kts
12-Feb-21 09:41 34.210770 -119.095415 359 62ft 0kts
12-Feb-21 09:42 34.210770 -119.095415 359 62ft 0kts
12-Feb-21 09:43 34.210770 -119.095415 359 62ft 0kts
12-Feb-21 09:44 34.210770 -119.095415 359 62ft 0kts
12-Feb-21 09:45 34.210770 -119.095415 359 62ft 0kts
12-Feb-21 09:46 34.210770 -119.095415 359 62ft 0kts
12-Feb-21 09:47 34.210770 -119.095415 359 62ft 0kts
12-Feb-21 09:48 34.210770 -119.095415 359 62ft 0kts
12-Feb-21 09:49 34.210770 -119.095415 359 62ft 0kts
12-Feb-21 09:50 34.210770 -119.095415 359 62ft 0kts
12-Feb-21 09:51 34.210770 -119.095415 359 62ft 0kts
12-Feb-21 09:52 34.210770 -119.095415 359 62ft 0kts
12-Feb-21 09:53 34.210770 -119.095415 359 62ft 0kts
12-Feb-21 09:54 34.210770 -119.095415 359 62ft 0kts
12-Feb-21 09:55 34.210883 -119.095426 348 62ft 0kts
12-Feb-21 09:56 34.210883 -119.095426 348 62ft 0kts
12-Feb-21 09:57 34.210892 -119.095427 358 62ft 0kts
12-Feb-21 09:58 34.211041 -119.095188 85 63ft 15kts
12-Feb-21 09:59 34.210977 -119.089672 90 68ft 16kts
12-Feb-21 10:00 34.211794 -119.084622 0 72ft 12kts
12-Feb-21 10:01 34.212836 -119.084611 359 74ft 0kts
12-Feb-21 10:02 34.212836 -119.084611 359 74ft 0kts
12-Feb-21 10:03 34.213713 -119.088102 270 71ft 66kts
12-Feb-21 10:05 34.212377 -119.113192 231 891ft 79kts
12-Feb-21 10:06 34.198717 -119.103432 93 1750ft 78kts
12-Feb-21 10:07 34.198019 -119.076351 91 2554ft 82kts
12-Feb-21 10:08 34.198027 -119.047230 89 3299ft 91kts
12-Feb-21 10:09 34.203143 -119.018231 56 4078ft 91kts
12-Feb-21 10:10 34.214280 -118.991280 78 4820ft 90kts
12-Feb-21 10:11 34.216917 -118.959452 87 5396ft 105kts
12-Feb-21 10:12 34.217993 -118.919187 88 5504ft 130kts
12-Feb-21 10:13 34.218919 -118.874352 88 5503ft 134kts
12-Feb-21 10:14 34.219825 -118.829023 88 5503ft 135kts
12-Feb-21 10:15 34.220713 -118.783528 88 5503ft 135kts
12-Feb-21 10:16 34.221585 -118.738131 88 5503ft 135kts
12-Feb-21 10:17 34.222444 -118.692592 88 5503ft 135kts
12-Feb-21 10:18 34.223283 -118.647213 88 5503ft 135kts
12-Feb-21 10:18 34.223970 -118.609315 88 5503ft 135kts
12-Feb-21 10:20 34.192831 -118.576176 153 5503ft 135kts
12-Feb-21 10:20 34.167226 -118.561552 154 5504ft 119kts
12-Feb-21 10:22 34.129573 -118.540438 154 5504ft 133kts
12-Feb-21 10:22 34.101426 -118.524472 154 5503ft 134kts
12-Feb-21 10:23 34.067656 -118.504932 154 5503ft 135kts
12-Feb-21 10:24 34.033612 -118.485609 154 5503ft 135kts
12-Feb-21 10:25 33.999419 -118.466421 154 5503ft 135kts
12-Feb-21 10:26 33.965301 -118.447335 154 5503ft 135kts
12-Feb-21 10:27 33.932007 -118.426441 138 5503ft 135kts
12-Feb-21 10:28 33.904394 -118.395860 137 5503ft 135kts
12-Feb-21 10:29 33.876269 -118.365536 137 5503ft 135kts
12-Feb-21 10:30 33.848706 -118.334606 137 5503ft 135kts
12-Feb-21 10:31 33.821255 -118.303558 136 5503ft 135kts
12-Feb-21 10:32 33.793834 -118.272646 137 5503ft 135kts
12-Feb-21 10:33 33.766285 -118.241641 137 5503ft 135kts
12-Feb-21 10:34 33.744990 -118.205581 117 5245ft 126kts
12-Feb-21 10:35 33.728778 -118.169024 118 4573ft 129kts
12-Feb-21 10:36 33.711414 -118.130311 118 3983ft 132kts
12-Feb-21 10:37 33.693261 -118.089729 118 3576ft 141kts
12-Feb-21 10:38 33.674895 -118.048580 118 3519ft 137kts
12-Feb-21 10:39 33.657408 -118.009154 117 3412ft 129kts
12-Feb-21 10:40 33.662090 -117.967621 78 3012ft 128kts
12-Feb-21 10:41 33.669099 -117.926155 78 2588ft 119kts
12-Feb-21 10:42 33.682197 -117.893343 38 1678ft 101kts
12-Feb-21 10:43 33.702689 -117.873592 65 1412ft 80kts
12-Feb-21 10:44 33.689502 -117.860058 203 426ft 84kts
12-Feb-21 10:45 33.678065 -117.868239 300 58ft 9kts
12-Feb-21 10:46 33.678105 -117.868352 297 58ft 0kts
12-Feb-21 10:47 33.678109 -117.868476 259 58ft 6kts
12-Feb-21 10:48 33.675324 -117.871095 307 58ft 6kts

Navigation Log

Ident Type
Flight plan parsing failed, navigation log unavailable